createdAt,value
2018-11-14T00:00:23.384Z,5.90
2018-11-14T00:02:52.088Z,5.27
2018-11-14T00:05:20.746Z,5.20
2018-11-14T00:07:49.401Z,5.67
2018-11-14T00:10:18.727Z,5.57
2018-11-14T00:12:47.016Z,5.60
2018-11-14T00:15:16.968Z,5.80
2018-11-14T00:17:46.538Z,5.87
2018-11-14T00:20:15.349Z,5.63
2018-11-14T00:22:45.153Z,5.73
2018-11-14T00:25:13.823Z,5.57
2018-11-14T00:27:42.526Z,5.90
2018-11-14T00:30:15.099Z,5.40
2018-11-14T00:32:44.004Z,5.43
2018-11-14T00:35:13.181Z,5.80
2018-11-14T00:37:42.265Z,6.80
2018-11-14T00:40:12.394Z,5.70
2018-11-14T00:42:41.688Z,6.40
2018-11-14T00:45:12.333Z,6.17
2018-11-14T00:47:41.620Z,5.83
2018-11-14T00:50:11.224Z,7.43
2018-11-14T00:52:40.113Z,6.47
2018-11-14T00:55:11.327Z,7.00
2018-11-14T00:57:40.167Z,6.93
2018-11-14T01:00:11.221Z,6.97
2018-11-14T01:02:40.115Z,6.40
2018-11-14T01:05:09.796Z,6.90
2018-11-14T01:07:38.694Z,6.07
2018-11-14T01:10:09.317Z,6.97
2018-11-14T01:12:38.220Z,6.97
2018-11-14T01:15:09.152Z,6.67
2018-11-14T01:17:38.511Z,7.03
2018-11-14T01:20:08.713Z,6.63
2018-11-14T01:22:37.432Z,5.87
2018-11-14T01:25:06.713Z,6.43
2018-11-14T01:27:35.372Z,7.20
2018-11-14T01:30:05.393Z,6.70
2018-11-14T01:32:34.079Z,7.73
2018-11-14T01:35:02.736Z,7.47
2018-11-14T01:37:31.408Z,8.30
2018-11-14T01:40:00.077Z,6.57
2018-11-14T01:42:28.762Z,7.97
2018-11-14T01:45:02.321Z,6.97
2018-11-14T01:47:31.083Z,8.90
2018-11-14T01:49:59.768Z,7.57
2018-11-14T01:52:28.648Z,6.90
2018-11-14T01:54:57.421Z,7.70
2018-11-14T01:57:26.531Z,8.47
2018-11-14T01:59:55.525Z,7.90
2018-11-14T02:02:24.245Z,7.43
2018-11-14T02:04:52.900Z,8.67
2018-11-14T02:07:21.980Z,7.93
2018-11-14T02:09:51.202Z,7.40
2018-11-14T02:12:19.876Z,7.77
2018-11-14T02:14:48.557Z,7.57
2018-11-14T02:17:17.239Z,7.90
2018-11-14T02:19:45.893Z,8.00
2018-11-14T02:22:14.550Z,8.43
2018-11-14T02:24:43.213Z,10.00
2018-11-14T02:27:11.877Z,8.80
2018-11-14T02:29:40.532Z,9.17
2018-11-14T02:32:09.194Z,8.27
2018-11-14T02:34:37.869Z,7.90
2018-11-14T02:37:06.520Z,8.70
2018-11-14T02:39:35.191Z,8.77
2018-11-14T02:42:03.878Z,9.20
2018-11-14T02:44:32.533Z,9.27
2018-11-14T02:47:01.207Z,9.07
2018-11-14T02:49:29.869Z,9.90
2018-11-14T02:51:58.523Z,10.93
2018-11-14T02:54:27.183Z,9.10
2018-11-14T02:56:55.840Z,9.67
2018-11-14T02:59:24.578Z,9.60
2018-11-14T03:01:53.248Z,10.40
2018-11-14T03:04:21.862Z,10.90
2018-11-14T03:06:50.531Z,10.80
2018-11-14T03:09:19.200Z,9.80
2018-11-14T03:11:47.883Z,10.07
2018-11-14T03:14:16.585Z,10.87
2018-11-14T03:16:45.253Z,10.00
2018-11-14T03:19:13.910Z,11.10
2018-11-14T03:21:42.572Z,10.00
2018-11-14T03:24:11.216Z,10.73
2018-11-14T03:26:39.882Z,10.57
2018-11-14T03:29:08.536Z,11.47
2018-11-14T03:31:37.212Z,10.87
2018-11-14T03:34:06.093Z,12.03
2018-11-14T03:36:34.776Z,12.50
2018-11-14T03:39:03.809Z,11.70
2018-11-14T03:41:32.477Z,12.67
2018-11-14T03:44:01.125Z,12.47
2018-11-14T03:46:29.785Z,12.40
2018-11-14T03:48:58.432Z,14.10
2018-11-14T03:51:27.104Z,13.13
2018-11-14T03:53:55.756Z,14.10
2018-11-14T03:56:24.431Z,14.20
2018-11-14T03:58:53.074Z,14.40
2018-11-14T04:01:21.722Z,14.90
2018-11-14T04:03:50.382Z,14.50
2018-11-14T04:06:19.041Z,13.90
2018-11-14T04:08:47.728Z,13.67
2018-11-14T04:11:16.387Z,14.77
2018-11-14T04:13:45.044Z,15.67
2018-11-14T04:16:13.677Z,14.90
2018-11-14T04:18:42.361Z,14.53
2018-11-14T04:21:11.036Z,14.77
2018-11-14T04:23:43.400Z,16.30
2018-11-14T04:26:12.079Z,16.47
2018-11-14T04:28:40.735Z,18.00
2018-11-14T04:31:09.388Z,17.63
2018-11-14T04:33:38.092Z,17.90
2018-11-14T04:36:06.762Z,19.33
2018-11-14T04:38:35.437Z,18.57
2018-11-14T04:41:04.093Z,19.00
2018-11-14T04:43:32.755Z,22.43
2018-11-14T04:46:01.421Z,21.50
2018-11-14T04:48:30.105Z,25.20
2018-11-14T04:50:58.768Z,22.87
2018-11-14T04:53:27.442Z,23.97
2018-11-14T04:55:56.097Z,24.33
2018-11-14T04:58:24.760Z,24.17
2018-11-14T05:00:53.449Z,22.57
2018-11-14T05:03:22.601Z,24.00
2018-11-14T05:05:51.285Z,24.77
2018-11-14T05:08:19.950Z,24.40
2018-11-14T05:10:48.634Z,24.00
2018-11-14T05:13:17.301Z,24.70
2018-11-14T05:15:45.977Z,25.43
2018-11-14T05:18:14.758Z,24.60
2018-11-14T05:20:43.422Z,26.07
2018-11-14T05:23:12.073Z,26.13
2018-11-14T05:25:40.746Z,27.17
2018-11-14T05:28:09.436Z,26.77
2018-11-14T05:30:38.097Z,27.80
2018-11-14T05:33:06.757Z,26.40
2018-11-14T05:35:35.442Z,27.00
2018-11-14T05:38:04.200Z,29.20
2018-11-14T05:40:32.916Z,27.80
2018-11-14T05:43:01.582Z,26.17
2018-11-14T05:45:30.326Z,28.07
2018-11-14T05:47:58.926Z,27.47
2018-11-14T05:50:27.585Z,30.40
2018-11-14T05:52:56.276Z,27.67
2018-11-14T05:55:24.944Z,27.37
2018-11-14T05:57:53.615Z,29.33
2018-11-14T06:00:36.709Z,28.53
2018-11-14T06:03:05.458Z,30.67
2018-11-14T06:05:34.114Z,29.17
2018-11-14T06:08:02.794Z,28.97
2018-11-14T06:10:31.460Z,28.33
2018-11-14T06:13:00.146Z,28.60
2018-11-14T06:15:28.903Z,28.77
2018-11-14T06:17:58.136Z,28.80
2018-11-14T06:20:26.831Z,28.70
2018-11-14T06:22:55.494Z,29.43
2018-11-14T06:25:28.064Z,29.30
2018-11-14T06:27:57.495Z,28.80
2018-11-14T06:30:26.424Z,35.33
2018-11-14T06:32:55.537Z,26.10
2018-11-14T06:35:24.351Z,27.40
2018-11-14T06:37:53.422Z,28.57
2018-11-14T06:40:22.082Z,26.60
2018-11-14T06:42:50.735Z,25.13
2018-11-14T06:45:20.599Z,27.97
2018-11-14T06:47:50.503Z,25.57
2018-11-14T06:50:19.179Z,27.17
2018-11-14T06:52:48.872Z,27.60
2018-11-14T06:55:18.198Z,27.50
2018-11-14T06:57:46.851Z,25.30
2018-11-14T07:00:22.496Z,26.30
2018-11-14T07:02:51.756Z,26.53
2018-11-14T07:05:20.491Z,25.87
2018-11-14T07:07:49.100Z,24.50
2018-11-14T07:10:19.139Z,24.97
2018-11-14T07:12:47.792Z,25.80
2018-11-14T07:15:17.496Z,24.33
2018-11-14T07:17:46.765Z,26.00
2018-11-14T07:20:21.062Z,27.30
2018-11-14T07:22:49.765Z,26.23
2018-11-14T07:25:18.462Z,25.37
2018-11-14T07:27:47.332Z,24.57
2018-11-14T07:30:17.841Z,25.43
2018-11-14T07:32:47.929Z,25.30
2018-11-14T07:35:17.145Z,22.10
2018-11-14T07:37:48.409Z,22.53
2018-11-14T07:40:17.291Z,20.77
2018-11-14T07:42:45.980Z,22.23
2018-11-14T07:45:14.854Z,22.30
2018-11-14T07:47:43.541Z,22.67
2018-11-14T07:50:13.647Z,23.67
2018-11-14T07:52:43.060Z,23.27
2018-11-14T07:55:12.363Z,23.47
2018-11-14T07:57:41.069Z,24.23
2018-11-14T08:00:13.124Z,23.83
2018-11-14T08:02:41.802Z,23.27
2018-11-14T08:05:10.831Z,23.23
2018-11-14T08:07:39.533Z,22.70
2018-11-14T08:10:09.885Z,22.10
2018-11-14T08:12:38.542Z,21.27
2018-11-14T08:15:08.296Z,21.13
2018-11-14T08:17:37.004Z,21.50
2018-11-14T08:20:10.585Z,21.30
2018-11-14T08:22:39.476Z,22.13
2018-11-14T08:25:08.367Z,21.30
2018-11-14T08:27:37.564Z,22.67
2018-11-14T08:30:07.264Z,23.33
2018-11-14T08:32:36.065Z,23.97
2018-11-14T08:35:05.933Z,23.67
2018-11-14T08:37:34.637Z,25.53
2018-11-14T08:40:03.648Z,21.97
2018-11-14T08:42:32.328Z,23.27
2018-11-14T08:45:01.327Z,22.90
2018-11-14T08:47:30.016Z,24.27
2018-11-14T08:49:58.687Z,23.33
2018-11-14T08:52:27.354Z,23.13
2018-11-14T08:54:56.017Z,23.33
2018-11-14T08:57:24.685Z,24.97
2018-11-14T08:59:53.461Z,23.87
2018-11-14T09:02:22.115Z,27.50
2018-11-14T09:04:50.810Z,29.17
2018-11-14T09:07:19.461Z,29.63
2018-11-14T09:09:48.136Z,28.30
2018-11-14T09:12:16.874Z,27.13
2018-11-14T09:14:45.499Z,29.90
2018-11-14T09:17:14.163Z,26.27
2018-11-14T09:19:42.862Z,26.20
2018-11-14T09:22:11.533Z,25.90
2018-11-14T09:24:40.232Z,28.50
2018-11-14T09:27:08.872Z,26.23
2018-11-14T09:29:37.698Z,25.10
2018-11-14T09:32:06.369Z,26.70
2018-11-14T09:34:35.116Z,28.03
2018-11-14T09:37:03.753Z,27.77
2018-11-14T09:39:32.442Z,26.20
2018-11-14T09:42:01.089Z,24.83
2018-11-14T09:44:29.798Z,25.10
2018-11-14T09:46:58.432Z,25.93
2018-11-14T09:49:27.185Z,24.33
2018-11-14T09:51:55.788Z,28.93
2018-11-14T09:54:24.449Z,28.83
2018-11-14T09:56:53.187Z,32.60
2018-11-14T09:59:21.786Z,31.10
2018-11-14T10:01:50.464Z,30.90
2018-11-14T10:04:19.120Z,29.77
2018-11-14T10:06:47.808Z,24.30
2018-11-14T10:09:16.509Z,23.30
2018-11-14T10:11:45.186Z,22.73
2018-11-14T10:14:13.845Z,24.27
2018-11-14T10:16:42.517Z,24.77
2018-11-14T10:19:11.688Z,24.67
2018-11-14T10:21:40.969Z,28.20
2018-11-14T10:24:09.576Z,24.90
2018-11-14T10:26:38.266Z,26.97
2018-11-14T10:29:06.935Z,26.20
2018-11-14T10:31:35.667Z,28.53
2018-11-14T10:34:04.756Z,26.10
2018-11-14T10:36:33.432Z,25.80
2018-11-14T10:39:02.117Z,24.90
2018-11-14T10:41:30.812Z,23.53
2018-11-14T10:43:59.489Z,22.27
2018-11-14T10:46:28.174Z,26.07
2018-11-14T10:48:56.849Z,23.43
2018-11-14T10:51:25.513Z,24.10
2018-11-14T10:53:54.193Z,22.90
2018-11-14T10:56:22.862Z,21.63
2018-11-14T10:58:51.575Z,21.10
2018-11-14T11:01:25.798Z,21.43
2018-11-14T11:03:59.837Z,21.60
2018-11-14T11:06:38.269Z,21.40
2018-11-14T11:09:14.153Z,19.90
2018-11-14T11:11:48.680Z,21.80
2018-11-14T11:14:22.776Z,21.13
2018-11-14T11:16:56.893Z,20.07
2018-11-14T11:19:26.962Z,21.70
2018-11-14T11:21:55.613Z,22.37
2018-11-14T11:24:24.554Z,22.50
2018-11-14T11:26:53.236Z,23.07
2018-11-14T11:29:22.009Z,22.67
2018-11-14T11:31:50.695Z,22.40
2018-11-14T11:34:19.336Z,21.73
2018-11-14T11:36:48.016Z,22.77
2018-11-14T11:39:18.804Z,21.60
2018-11-14T11:41:48.004Z,21.20
2018-11-14T11:44:16.686Z,15.50
2018-11-14T11:46:45.374Z,21.93
2018-11-14T11:49:14.025Z,22.37
2018-11-14T11:51:42.691Z,23.83
2018-11-14T11:54:11.355Z,24.13
2018-11-14T11:56:40.036Z,24.67
2018-11-14T11:59:08.984Z,23.03
2018-11-14T12:01:37.688Z,22.17
2018-11-14T12:04:06.353Z,22.57
2018-11-14T12:06:35.057Z,21.90
2018-11-14T12:09:05.092Z,21.90
2018-11-14T12:11:33.765Z,22.03
2018-11-14T12:14:02.430Z,21.73
2018-11-14T12:16:31.116Z,21.77
2018-11-14T12:18:59.824Z,23.03
2018-11-14T12:21:28.613Z,20.80
2018-11-14T12:23:57.713Z,23.40
2018-11-14T12:26:26.480Z,22.93
2018-11-14T12:28:55.144Z,22.20
2018-11-14T12:31:23.810Z,23.10
2018-11-14T12:33:52.494Z,22.47
2018-11-14T12:36:21.156Z,25.73
2018-11-14T12:38:49.908Z,23.40
2018-11-14T12:41:18.566Z,22.23
2018-11-14T12:43:47.237Z,22.50
2018-11-14T12:46:15.985Z,22.23
2018-11-14T12:48:44.684Z,22.20
2018-11-14T12:51:13.373Z,22.17
2018-11-14T12:53:42.849Z,22.97
2018-11-14T12:56:11.537Z,22.30
2018-11-14T12:58:40.212Z,25.43
2018-11-14T13:01:08.879Z,24.53
2018-11-14T13:03:37.555Z,22.97
2018-11-14T13:06:06.226Z,23.03
2018-11-14T13:08:34.914Z,24.07
2018-11-14T13:11:03.580Z,26.97
2018-11-14T13:13:37.796Z,23.50
2018-11-14T13:16:06.505Z,24.23
2018-11-14T13:18:35.168Z,24.53
2018-11-14T13:21:03.841Z,33.60
2018-11-14T13:23:32.511Z,25.57
2018-11-14T13:26:01.177Z,25.70
2018-11-14T13:28:29.821Z,25.50
2018-11-14T13:30:58.506Z,26.93
2018-11-14T13:33:27.177Z,26.40
2018-11-14T13:35:55.865Z,29.63
2018-11-14T13:38:24.534Z,25.63
2018-11-14T13:40:53.228Z,28.17
2018-11-14T13:43:21.953Z,25.20
2018-11-14T13:45:50.544Z,27.47
2018-11-14T13:48:19.196Z,28.23
2018-11-14T13:50:48.114Z,27.30
2018-11-14T13:53:16.529Z,26.27
2018-11-14T13:55:45.209Z,26.10
2018-11-14T13:58:13.865Z,27.87
2018-11-14T14:00:42.530Z,26.53
2018-11-14T14:03:11.197Z,26.83
2018-11-14T14:05:39.902Z,27.10
2018-11-14T14:08:08.635Z,25.63
2018-11-14T14:10:37.232Z,27.40
2018-11-14T14:13:05.902Z,26.97
2018-11-14T14:15:34.578Z,27.50
2018-11-14T14:18:03.282Z,29.37
2018-11-14T14:20:31.948Z,27.87
2018-11-14T14:23:00.625Z,27.10
2018-11-14T14:25:29.329Z,26.97
2018-11-14T14:27:57.993Z,28.60
2018-11-14T14:30:26.674Z,26.57
2018-11-14T14:32:55.365Z,26.27
2018-11-14T14:35:24.022Z,28.10
2018-11-14T14:37:52.787Z,25.77
2018-11-14T14:40:22.460Z,29.20
2018-11-14T14:42:51.471Z,25.20
2018-11-14T14:45:21.591Z,26.07
2018-11-14T14:47:50.256Z,28.17
2018-11-14T14:50:19.588Z,24.43
2018-11-14T14:52:48.314Z,26.23
2018-11-14T14:55:19.617Z,24.57
2018-11-14T14:57:48.612Z,25.07
2018-11-14T15:00:19.637Z,25.00
2018-11-14T15:02:48.297Z,24.37
2018-11-14T15:05:16.983Z,25.73
2018-11-14T15:07:45.620Z,24.70
2018-11-14T15:10:16.780Z,22.87
2018-11-14T15:12:45.423Z,24.37
2018-11-14T15:15:14.732Z,24.67
2018-11-14T15:17:43.705Z,23.57
2018-11-14T15:20:14.891Z,21.77
2018-11-14T15:22:43.848Z,21.37
2018-11-14T15:25:13.769Z,21.70
2018-11-14T15:27:42.968Z,21.23
2018-11-14T15:30:14.623Z,24.27
2018-11-14T15:32:43.296Z,21.37
2018-11-14T15:35:12.686Z,19.63
2018-11-14T15:37:41.280Z,21.10
2018-11-14T15:40:11.954Z,20.60
2018-11-14T15:42:42.485Z,18.57
2018-11-14T15:45:13.514Z,18.70
2018-11-14T15:47:42.268Z,18.80
2018-11-14T15:50:12.816Z,18.07
2018-11-14T15:52:42.454Z,18.30
2018-11-14T15:55:12.233Z,17.27
2018-11-14T15:57:40.903Z,14.57
2018-11-14T16:00:12.061Z,16.03
2018-11-14T16:02:40.710Z,15.67
2018-11-14T16:05:11.844Z,14.77
2018-11-14T16:07:41.700Z,13.80
2018-11-14T16:10:11.943Z,12.37
2018-11-14T16:12:41.217Z,11.87
2018-11-14T16:15:11.625Z,13.20
2018-11-14T16:17:40.760Z,11.83
2018-11-14T16:20:11.343Z,11.40
2018-11-14T16:22:40.179Z,11.50
2018-11-14T16:25:11.437Z,12.63
2018-11-14T16:27:40.612Z,12.53
2018-11-14T16:30:11.861Z,12.10
2018-11-14T16:32:40.680Z,14.00
2018-11-14T16:35:09.602Z,14.30
2018-11-14T16:37:38.429Z,13.80
2018-11-14T16:40:10.716Z,14.10
2018-11-14T16:42:39.821Z,12.43
2018-11-14T16:45:08.780Z,16.00
2018-11-14T16:47:37.877Z,13.17
2018-11-14T16:50:07.213Z,15.00
2018-11-14T16:52:35.929Z,14.60
2018-11-14T16:55:05.512Z,12.40
2018-11-14T16:57:34.192Z,13.83
2018-11-14T17:00:02.833Z,13.17
2018-11-14T17:02:31.515Z,12.03
2018-11-14T17:05:00.357Z,13.33
2018-11-14T17:07:29.085Z,12.30
2018-11-14T17:09:57.863Z,12.53
2018-11-14T17:12:26.585Z,12.50
2018-11-14T17:14:55.242Z,12.77
2018-11-14T17:17:23.955Z,12.60
2018-11-14T17:19:52.657Z,12.57
2018-11-14T17:22:21.333Z,12.00
2018-11-14T17:24:50.020Z,13.03
2018-11-14T17:27:18.733Z,12.47
2018-11-14T17:29:47.409Z,13.23
2018-11-14T17:32:16.056Z,12.20
2018-11-14T17:34:44.840Z,12.87
2018-11-14T17:37:13.525Z,13.40
2018-11-14T17:39:42.193Z,13.17
2018-11-14T17:42:11.067Z,11.73
2018-11-14T17:44:39.546Z,13.53
2018-11-14T17:47:08.200Z,12.90
2018-11-14T17:49:36.890Z,12.53
2018-11-14T17:52:05.566Z,12.10
2018-11-14T17:54:34.287Z,11.80
2018-11-14T17:57:02.960Z,13.03
2018-11-14T17:59:31.660Z,14.03
2018-11-14T18:02:00.340Z,13.40
2018-11-14T18:04:29.040Z,12.97
2018-11-14T18:06:57.737Z,12.73
2018-11-14T18:09:26.384Z,14.00
2018-11-14T18:11:55.081Z,11.90
2018-11-14T18:14:23.781Z,13.23
2018-11-14T18:16:52.456Z,11.47
2018-11-14T18:19:21.141Z,13.50
2018-11-14T18:21:49.800Z,11.83
2018-11-14T18:24:18.495Z,11.97
2018-11-14T18:26:47.145Z,12.33
2018-11-14T18:29:15.796Z,10.90
2018-11-14T18:31:44.272Z,11.07
2018-11-14T18:34:12.841Z,10.70
2018-11-14T18:36:41.518Z,12.00
2018-11-14T18:39:12.200Z,10.80
2018-11-14T18:41:41.040Z,11.23
2018-11-14T18:44:09.708Z,11.00
2018-11-14T18:46:38.423Z,11.13
2018-11-14T18:49:07.115Z,12.70
2018-11-14T18:51:35.805Z,15.10
2018-11-14T18:54:04.968Z,13.00
2018-11-14T18:56:33.680Z,12.93
2018-11-14T18:59:02.341Z,14.90
2018-11-14T19:01:30.999Z,12.53
2018-11-14T19:03:59.680Z,11.90
2018-11-14T19:06:28.336Z,13.60
2018-11-14T19:08:57.032Z,12.20
2018-11-14T19:11:25.694Z,11.90
2018-11-14T19:13:54.373Z,11.30
2018-11-14T19:16:23.032Z,11.37
2018-11-14T19:18:51.950Z,11.17
2018-11-14T19:21:20.565Z,11.20
2018-11-14T19:23:49.274Z,11.60
2018-11-14T19:26:17.937Z,10.50
2018-11-14T19:28:46.630Z,11.33
2018-11-14T19:31:15.292Z,11.30
2018-11-14T19:33:43.965Z,10.37
2018-11-14T19:36:12.622Z,9.83
2018-11-14T19:38:41.304Z,10.73
2018-11-14T19:41:10.104Z,11.97
2018-11-14T19:43:38.724Z,11.53
2018-11-14T19:46:08.172Z,12.00
2018-11-14T19:48:36.880Z,10.90
2018-11-14T19:51:05.886Z,10.00
2018-11-14T19:53:34.642Z,9.53
2018-11-14T19:56:03.327Z,10.57
2018-11-14T19:58:31.964Z,10.83
2018-11-14T20:01:00.661Z,10.00
2018-11-14T20:03:29.389Z,11.00
2018-11-14T20:05:58.081Z,9.27
2018-11-14T20:08:26.744Z,9.60
2018-11-14T20:10:55.229Z,9.30
2018-11-14T20:13:23.938Z,10.43
2018-11-14T20:15:52.631Z,9.70
2018-11-14T20:18:21.313Z,11.13
2018-11-14T20:20:50.024Z,9.40
2018-11-14T20:23:18.682Z,9.20
2018-11-14T20:25:47.423Z,9.60
2018-11-14T20:28:16.055Z,10.40
2018-11-14T20:30:44.761Z,8.60
2018-11-14T20:33:13.981Z,9.30
2018-11-14T20:35:42.648Z,8.97
2018-11-14T20:38:11.328Z,9.83
2018-11-14T20:40:41.323Z,9.97
2018-11-14T20:43:09.796Z,8.50
2018-11-14T20:45:38.391Z,9.70
2018-11-14T20:48:07.053Z,9.53
2018-11-14T20:50:35.721Z,9.57
2018-11-14T20:53:05.026Z,9.23
2018-11-14T20:55:34.599Z,9.57
2018-11-14T20:58:03.304Z,10.57
2018-11-14T21:00:33.201Z,8.97
2018-11-14T21:03:01.971Z,9.67
2018-11-14T21:05:30.972Z,9.07
2018-11-14T21:07:59.639Z,9.40
2018-11-14T21:10:30.724Z,9.70
2018-11-14T21:12:59.945Z,9.97
2018-11-14T21:15:30.045Z,10.10
2018-11-14T21:17:59.661Z,11.50
2018-11-14T21:20:28.332Z,10.03
2018-11-14T21:22:57.077Z,10.87
2018-11-14T21:25:26.121Z,11.50
2018-11-14T21:27:55.335Z,10.13
2018-11-14T21:30:25.239Z,9.43
2018-11-14T21:32:54.024Z,10.17
2018-11-14T21:35:26.293Z,9.73
2018-11-14T21:37:56.324Z,9.97
2018-11-14T21:40:25.013Z,10.10
2018-11-14T21:42:53.857Z,10.77
2018-11-14T21:45:23.796Z,10.10
2018-11-14T21:47:58.049Z,10.03
2018-11-14T21:50:27.622Z,10.00
2018-11-14T21:52:56.356Z,10.50
2018-11-14T21:55:24.964Z,10.20
2018-11-14T21:57:53.644Z,9.57
2018-11-14T22:00:23.597Z,9.60
2018-11-14T22:02:53.505Z,8.60
2018-11-14T22:05:22.172Z,9.30
2018-11-14T22:07:50.816Z,9.00
2018-11-14T22:10:20.796Z,8.67
2018-11-14T22:12:49.906Z,10.37
2018-11-14T22:15:19.813Z,9.43
2018-11-14T22:17:48.599Z,8.80
2018-11-14T22:20:18.517Z,10.63
2018-11-14T22:22:47.616Z,9.70
2018-11-14T22:25:17.630Z,9.47
2018-11-14T22:27:46.304Z,10.67
2018-11-14T22:30:21.555Z,8.53
2018-11-14T22:32:50.245Z,9.47
2018-11-14T22:35:20.128Z,9.83
2018-11-14T22:37:48.829Z,9.17
2018-11-14T22:40:18.861Z,9.77
2018-11-14T22:42:47.629Z,9.23
2018-11-14T22:45:17.859Z,10.93
2018-11-14T22:47:46.948Z,10.90
2018-11-14T22:50:16.990Z,9.60
2018-11-14T22:52:45.987Z,8.33
2018-11-14T22:55:15.801Z,8.90
2018-11-14T22:57:45.277Z,9.40
2018-11-14T23:00:21.349Z,9.27
2018-11-14T23:02:51.268Z,9.73
2018-11-14T23:05:20.042Z,9.63
2018-11-14T23:07:50.060Z,9.50
2018-11-14T23:10:19.557Z,8.93
2018-11-14T23:12:48.569Z,9.47
2018-11-14T23:15:17.542Z,8.03
2018-11-14T23:17:46.253Z,7.13
2018-11-14T23:20:15.734Z,7.80
2018-11-14T23:22:45.065Z,7.63
2018-11-14T23:25:14.340Z,8.73
2018-11-14T23:27:44.165Z,9.90
2018-11-14T23:30:13.875Z,7.67
2018-11-14T23:32:43.687Z,7.70
2018-11-14T23:35:15.156Z,7.30
2018-11-14T23:37:44.936Z,8.40
2018-11-14T23:40:13.657Z,7.63
2018-11-14T23:42:42.325Z,9.20
2018-11-14T23:45:12.618Z,7.83
2018-11-14T23:47:41.841Z,8.50
2018-11-14T23:50:13.782Z,9.93
2018-11-14T23:52:43.820Z,9.00
2018-11-14T23:55:12.692Z,9.40
2018-11-14T23:57:41.381Z,9.90
